Vero Beach, FL

3:27 PM EST on December 06, 2016 (GMT -0500)
Oak Chase | | Change Station

Elev 24 ft 27.66 °N, 80.46 °W | Updated 38 seconds ago

Overcast
Overcast
80.0 °F
Feels Like 84 °F
N
2.0
Wind Variable Wind from SW
Gusts 10.0 mph

Today
High -- | Low -- °F
--% Chance of Precip.
Yesterday
High -- | Low -- °F
Precip. -- in
Pressure 29.86 in
Visibility 3.0 miles
Clouds Scattered Clouds 3100 ft
Mostly Cloudy 4200 ft
Overcast 7000 ft
Heat Index 84 °F
Dew Point 74 °F
Humidity 81%
Rainfall 0.00 in
Snow Depth Not available.
6:59 AM 5:26 PM
Waxing Crescent, 45% visible
SPECI KVRB 062024Z 23013G23KT 3SM -RA SCT031 BKN042 OVC070 27/24 A2986 RMK AO2 PK WND 20037/2011 LTG DSNT NE RAB11 P0010 T02670239
Pressure 29.86 in
Visibility 3.0 miles
Clouds Scattered Clouds 3100 ft
Mostly Cloudy 4200 ft
Overcast 7000 ft
Heat Index 84 °F
Dew Point 74 °F
Humidity 81%
Rainfall 0.00 in
Snow Depth Not available.
6:59 AM 5:26 PM
Waxing Crescent, 45% visible
SPECI KVRB 062024Z 23013G23KT 3SM -RA SCT031 BKN042 OVC070 27/24 A2986 RMK AO2 PK WND 20037/2011 LTG DSNT NE RAB11 P0010 T02670239

10-Day Weather Forecast

Almanac

Astronomy

Dec. 06, 2016 Rise Set
Actual Time
Civil Twilight
Nautical Twilight
Astronomical Twilight
Moon
Length of Visible Light
Length of Day
Tomorrow will be .
, % of the Moon is Illuminated

Today's Extremes

State Highs State Lows

Community

WunderPhotos

Upload Photos

1,956,022 photos uploaded!

WunderBlog® & News

Nearby

Air Quality

  Air Quality AQ Index Pollutant
Not available.

Snow Depth

Station Depth Elevation

Earthquake Activity

City Distance Mag. Time & Date
Minimum magnitude displayed is 2.5.

Coastal Water Temperatures

Place Temperature

Stations

Nearby Weather Stations

Station Location Temp. Windchill Dew Point Humidity Wind Precip. Elev Updated Type
                   

Watches & Warnings

There are currently no watches in effect.